Time;durP1;ratioP1;P1;durP2;ratioP2;P2;SDS_P1;SDS_P2;PMS_P1;PMS_P2;Temp;Humidity;BMP_temperature;BMP_pressure;BME280_temperature;BME280_humidity;BME280_pressure;Samples;Min_cycle;Max_cycle;Signal;HPM_P1;HPM_P2
2023/01/15 00:00:37;;;;;;;5.22;1.90;;;;;;;9.03;69.24;99825.56;5052796;28;20105;-76
2023/01/15 00:03:02;;;;;;;10.73;2.13;;;;;;;9.02;68.92;99812.84;5052731;28;20025;-77
2023/01/15 00:05:28;;;;;;;6.63;2.33;;;;;;;9.05;69.71;99812.31;5050963;28;20032;-77
2023/01/15 00:07:53;;;;;;;6.82;2.30;;;;;;;9.03;69.54;99819.19;5051032;28;20079;-77
2023/01/15 00:10:18;;;;;;;8.20;2.10;;;;;;;8.99;69.64;99823.59;5046635;28;20029;-76
2023/01/15 00:12:44;;;;;;;5.50;1.98;;;;;;;9.01;70.17;99822.25;5052011;28;20029;-76
2023/01/15 00:15:09;;;;;;;9.65;2.08;;;;;;;8.97;69.98;99821.13;5051684;28;20155;-77
2023/01/15 00:17:35;;;;;;;9.00;1.83;;;;;;;8.97;70.31;99814.75;5051880;28;20461;-76
2023/01/15 00:20:00;;;;;;;10.57;2.63;;;;;;;8.89;70.31;99809.72;5047716;28;20508;-76
2023/01/15 00:22:25;;;;;;;11.40;2.10;;;;;;;8.91;71.34;99815.81;5044166;28;20091;-76
2023/01/15 00:27:37;;;;;;;10.35;2.25;;;;;;;8.90;70.90;99803.91;5050281;28;20076;-76
2023/01/15 00:30:05;;;;;;;7.85;2.38;;;;;;;8.90;70.62;99803.09;5051183;28;20120;-76
2023/01/15 00:32:30;;;;;;;11.20;2.55;;;;;;;8.82;70.20;99804.41;5051312;28;20025;-76
2023/01/15 00:34:57;;;;;;;8.65;2.17;;;;;;;8.82;70.83;99804.41;5051382;28;20494;-77
2023/01/15 00:37:23;;;;;;;13.98;2.00;;;;;;;8.85;70.35;99801.13;5052703;28;20137;-76
2023/01/15 00:39:48;;;;;;;7.93;2.25;;;;;;;8.81;70.00;99800.00;5049097;28;20111;-76
2023/01/15 00:42:14;;;;;;;8.25;1.77;;;;;;;8.79;69.71;99803.00;5055287;28;20021;-76
2023/01/15 00:44:41;;;;;;;10.60;2.33;;;;;;;8.80;70.28;99821.28;5055093;28;20021;-76
2023/01/15 00:47:07;;;;;;;5.35;1.60;;;;;;;8.83;69.60;99823.50;5054379;28;20086;-77
2023/01/15 00:49:33;;;;;;;8.70;2.10;;;;;;;8.84;69.80;99829.88;5043691;28;20036;-76
2023/01/15 00:51:58;;;;;;;11.65;2.45;;;;;;;8.84;69.44;99816.91;5046644;28;20033;-77
2023/01/15 00:54:23;;;;;;;6.70;2.10;;;;;;;8.81;68.77;99834.03;5050564;28;20036;-76
2023/01/15 00:56:49;;;;;;;5.82;1.75;;;;;;;8.82;68.51;99834.84;5049301;28;20043;-76
2023/01/15 00:59:14;;;;;;;6.80;2.17;;;;;;;8.85;68.94;99837.09;5053031;28;20025;-76
2023/01/15 01:01:39;;;;;;;7.50;2.10;;;;;;;8.81;68.54;99830.44;5051850;28;20028;-76
2023/01/15 01:04:05;;;;;;;8.25;1.80;;;;;;;8.83;69.00;99839.28;5052150;28;20033;-76
2023/01/15 01:06:30;;;;;;;10.60;2.30;;;;;;;8.85;68.91;99834.31;5044062;28;20037;-76
2023/01/15 01:08:56;;;;;;;7.50;2.38;;;;;;;8.81;68.43;99835.97;5034664;28;20479;-76
2023/01/15 01:11:25;;;;;;;7.70;2.60;;;;;;;8.81;68.45;99835.97;5053547;28;20040;-76
2023/01/15 01:13:52;;;;;;;5.75;1.83;;;;;;;8.75;68.50;99839.78;5052413;28;20067;-77
2023/01/15 01:16:22;;;;;;;10.45;2.63;;;;;;;8.70;67.63;99836.97;5048228;28;20354;-76
2023/01/15 01:18:47;;;;;;;6.03;1.70;;;;;;;8.70;68.09;99831.44;5053921;28;20036;-76
2023/01/15 01:21:13;;;;;;;10.45;2.13;;;;;;;8.69;68.48;99830.63;5050048;28;20075;-76
2023/01/15 01:23:38;;;;;;;9.82;2.28;;;;;;;8.67;67.90;99831.97;5048822;28;20033;-76
2023/01/15 01:26:03;;;;;;;8.60;2.20;;;;;;;8.69;67.60;99840.84;5051634;28;20021;-76
2023/01/15 01:28:29;;;;;;;9.70;2.17;;;;;;;8.65;68.52;99829.50;5052017;28;20032;-76
2023/01/15 01:30:54;;;;;;;7.32;2.25;;;;;;;8.71;68.08;99822.03;5051551;28;20100;-76
2023/01/15 01:33:19;;;;;;;9.18;2.05;;;;;;;8.69;67.73;99827.03;5052214;28;20473;-77
2023/01/15 01:35:48;;;;;;;10.85;2.50;;;;;;;8.70;67.56;99835.03;5042987;28;20072;-76
2023/01/15 01:38:14;;;;;;;7.90;2.10;;;;;;;8.64;67.05;99838.03;5051972;28;20048;-77
2023/01/15 01:40:40;;;;;;;9.18;2.05;;;;;;;8.63;67.94;99839.97;5051114;28;20128;-77
2023/01/15 01:43:18;;;;;;;7.95;2.17;;;;;;;8.66;68.30;99846.91;5050884;28;20032;-76
2023/01/15 01:45:44;;;;;;;13.18;2.03;;;;;;;8.64;68.15;99843.56;5051096;28;20041;-76
2023/01/15 01:48:09;;;;;;;6.00;1.65;;;;;;;8.54;66.90;99839.63;5050007;28;20064;-76
2023/01/15 01:50:37;;;;;;;11.38;2.55;;;;;;;8.56;67.48;99842.13;5049238;28;20040;-77
2023/01/15 01:53:07;;;;;;;6.60;1.75;;;;;;;8.57;67.95;99828.03;5051944;28;20025;-76
2023/01/15 01:55:34;;;;;;;6.75;1.80;;;;;;;8.59;67.88;99827.75;5050325;28;20029;-76
2023/01/15 01:58:02;;;;;;;10.82;2.10;;;;;;;8.57;67.55;99838.28;5041999;28;20439;-76
2023/01/15 02:00:29;;;;;;;5.65;1.67;;;;;;;8.62;67.35;99835.53;5035548;28;20076;-76
2023/01/15 02:02:55;;;;;;;10.38;2.38;;;;;;;8.64;67.67;99838.03;5034895;28;20017;-76
2023/01/15 02:05:34;;;;;;;10.20;2.50;;;;;;;8.63;67.33;99839.13;5046251;28;20033;-76
2023/01/15 02:08:00;;;;;;;11.68;2.05;;;;;;;8.60;66.55;99832.19;5055534;28;20016;-76
2023/01/15 02:10:26;;;;;;;6.60;1.80;;;;;;;8.64;67.27;99846.31;5054297;28;20031;-77
2023/01/15 02:13:18;;;;;;;6.82;2.10;;;;;;;8.65;67.46;99850.78;5055355;28;20098;-76
2023/01/15 02:15:49;;;;;;;8.45;2.00;;;;;;;8.66;67.38;99841.38;5039276;28;20158;-77
2023/01/15 02:18:28;;;;;;;7.95;1.88;;;;;;;8.67;67.37;99837.50;5043605;28;20048;-76
2023/01/15 02:21:03;;;;;;;7.03;1.90;;;;;;;8.68;66.72;99850.22;5037141;28;20121;-76
2023/01/15 02:23:58;;;;;;;8.45;1.80;;;;;;;8.68;67.62;99833.63;5053803;28;20032;-77
2023/01/15 02:26:46;;;;;;;9.93;2.08;;;;;;;8.71;67.76;99841.41;5053244;28;20790;-76
2023/01/15 02:29:20;;;;;;;10.70;2.47;;;;;;;8.67;67.25;99826.44;5053586;28;20036;-76
2023/01/15 02:31:51;;;;;;;11.40;2.45;;;;;;;8.63;66.65;99825.31;5040566;28;20042;-76
2023/01/15 02:34:25;;;;;;;9.00;2.38;;;;;;;8.64;66.87;99821.44;5054524;28;20032;-76
2023/01/15 02:36:57;;;;;;;8.30;2.03;;;;;;;8.64;67.07;99819.50;5055180;28;20136;-77
2023/01/15 02:39:25;;;;;;;7.82;1.80;;;;;;;8.64;66.44;99821.44;5053282;28;20037;-76
2023/01/15 02:41:57;;;;;;;8.70;2.17;;;;;;;8.62;66.05;99821.72;5053490;28;20032;-76
2023/01/15 02:44:25;;;;;;;8.43;2.15;;;;;;;8.56;66.14;99825.53;5052755;28;20511;-76
2023/01/15 02:46:53;;;;;;;11.60;2.08;;;;;;;8.55;66.35;99819.16;5053559;28;20059;-76
2023/01/15 02:49:21;;;;;;;11.50;2.00;;;;;;;8.51;66.50;99806.97;5052921;28;20086;-76
2023/01/15 02:51:59;;;;;;;10.35;2.17;;;;;;;8.52;66.88;99808.63;5053395;28;20028;-76
2023/01/15 02:54:30;;;;;;;6.63;1.83;;;;;;;8.55;66.92;99808.09;5048908;28;20108;-76
2023/01/15 02:57:00;;;;;;;11.75;2.30;;;;;;;8.47;65.75;99807.75;5053991;28;20032;-76
2023/01/15 02:59:32;;;;;;;8.88;2.33;;;;;;;8.50;65.91;99801.72;5052165;28;20025;-76
2023/01/15 03:02:07;;;;;;;10.10;2.53;;;;;;;8.51;66.49;99801.44;5053234;28;20029;-76
2023/01/15 03:05:09;;;;;;;7.47;2.00;;;;;;;8.55;66.93;99805.34;5053555;28;20104;-76
2023/01/15 03:07:59;;;;;;;8.10;2.08;;;;;;;8.55;67.27;99819.16;5052623;28;20037;-76
2023/01/15 03:10:50;;;;;;;11.40;2.42;;;;;;;8.55;66.56;99808.09;5039243;28;20042;-77
2023/01/15 03:13:39;;;;;;;8.50;2.05;;;;;;;8.48;65.63;99820.50;5026091;28;20051;-78
2023/01/15 03:16:39;;;;;;;7.88;1.92;;;;;;;8.47;66.09;99816.06;5023329;28;20049;-77
2023/01/15 03:19:13;;;;;;;11.98;2.42;;;;;;;8.49;65.98;99822.16;5049983;28;20037;-77
2023/01/15 03:21:44;;;;;;;10.45;2.25;;;;;;;8.45;65.68;99819.09;5051345;28;20112;-77
2023/01/15 03:24:11;;;;;;;11.25;2.00;;;;;;;8.39;64.52;99806.31;5041697;28;20033;-77
2023/01/15 03:26:37;;;;;;;10.55;2.40;;;;;;;8.39;65.32;99806.31;5050232;28;20028;-77
2023/01/15 03:29:05;;;;;;;8.00;1.80;;;;;;;8.41;65.75;99806.91;5049422;28;20036;-77
2023/01/15 03:31:33;;;;;;;10.95;2.35;;;;;;;8.38;65.42;99806.59;5052643;28;20039;-77
2023/01/15 03:33:58;;;;;;;8.75;2.10;;;;;;;8.41;65.14;99806.91;5055746;28;20082;-77
2023/01/15 03:36:23;;;;;;;6.57;2.00;;;;;;;8.39;64.92;99811.84;5053284;28;20025;-77
2023/01/15 03:38:49;;;;;;;9.32;2.30;;;;;;;8.38;65.34;99810.19;5051554;28;20033;-78
2023/01/15 03:41:29;;;;;;;11.15;2.13;;;;;;;8.37;65.68;99805.78;5053658;28;20021;-78
2023/01/15 03:44:06;;;;;;;8.52;2.30;;;;;;;8.38;65.95;99812.97;5053703;28;20040;-77
2023/01/15 03:46:52;;;;;;;9.52;1.75;;;;;;;8.40;64.98;99819.03;5051004;28;20033;-77
2023/01/15 03:49:28;;;;;;;11.82;2.30;;;;;;;8.41;65.22;99817.97;5052705;28;20028;-78
2023/01/15 03:52:25;;;;;;;9.57;2.10;;;;;;;8.35;65.12;99810.69;5052081;28;20033;-78
2023/01/15 03:55:04;;;;;;;10.60;2.20;;;;;;;8.29;64.85;99820.03;5019508;28;20128;-77
2023/01/15 03:57:35;;;;;;;9.20;2.50;;;;;;;8.30;65.30;99813.41;5050853;28;20055;-77
2023/01/15 04:00:07;;;;;;;8.98;2.10;;;;;;;8.26;65.49;99821.41;5052076;28;20490;-77
2023/01/15 04:02:35;;;;;;;10.98;2.17;;;;;;;8.25;64.83;99818.88;5040174;28;20029;-77
2023/01/15 04:05:01;;;;;;;9.55;2.22;;;;;;;8.26;65.37;99821.41;5035703;28;20033;-77
2023/01/15 04:07:26;;;;;;;11.85;2.47;;;;;;;8.29;65.65;99804.28;5043163;28;20013;-78
2023/01/15 04:09:52;;;;;;;11.20;1.95;;;;;;;8.34;65.28;99807.09;5051923;28;20033;-77
2023/01/15 04:12:17;;;;;;;9.77;2.70;;;;;;;8.32;64.53;99800.97;5051808;28;20078;-77
2023/01/15 04:14:42;;;;;;;17.10;2.47;;;;;;;8.32;64.76;99813.97;5051713;28;20037;-77
2023/01/15 04:17:08;;;;;;;9.05;1.90;;;;;;;8.29;64.41;99804.28;5051214;28;20107;-77
2023/01/15 04:19:33;;;;;;;8.68;2.13;;;;;;;8.30;64.18;99813.41;5048931;28;20075;-78
2023/01/15 04:21:58;;;;;;;13.77;2.25;;;;;;;8.25;64.04;99816.13;5051179;28;20025;-77
2023/01/15 04:24:24;;;;;;;9.93;2.08;;;;;;;8.23;64.79;99810.03;5049283;28;20029;-77
2023/01/15 04:26:49;;;;;;;8.23;2.30;;;;;;;8.21;63.89;99818.56;5051179;28;20051;-77
2023/01/15 04:29:15;;;;;;;12.35;2.20;;;;;;;8.21;64.78;99804.75;5052053;28;20037;-77
2023/01/15 04:31:40;;;;;;;10.00;3.13;;;;;;;8.24;64.31;99800.63;5051716;28;20017;-77
2023/01/15 04:34:05;;;;;;;11.43;1.95;;;;;;;8.24;64.80;99808.94;5051100;28;20606;-77
2023/01/15 04:36:34;;;;;;;12.13;1.98;;;;;;;8.25;64.25;99810.59;5049368;28;20029;-76
2023/01/15 04:39:00;;;;;;;7.47;1.90;;;;;;;8.25;64.14;99811.44;5049363;28;20179;-77
2023/01/15 04:44:08;;;;;;;11.23;2.55;;;;;;;8.16;64.26;99815.75;5051072;28;20082;-77
2023/01/15 04:46:37;;;;;;;6.65;2.03;;;;;;;8.16;64.52;99832.34;5050095;28;20037;-77
2023/01/15 04:49:04;;;;;;;13.52;2.50;;;;;;;8.18;64.66;99829.34;5050845;28;20047;-77
2023/01/15 04:51:29;;;;;;;8.93;2.10;;;;;;;8.16;64.48;99826.81;5050884;28;20178;-77
2023/01/15 04:53:54;;;;;;;9.05;1.83;;;;;;;8.16;65.37;99837.03;5050039;28;20104;-77
2023/01/15 04:56:19;;;;;;;13.38;2.40;;;;;;;8.17;64.13;99833.19;5045465;28;20040;-76
2023/01/15 04:58:45;;;;;;;10.13;1.88;;;;;;;8.16;64.47;99839.81;5050946;28;20420;-76
2023/01/15 05:01:15;;;;;;;9.85;2.10;;;;;;;8.14;64.86;99828.19;5050333;28;20440;-76
2023/01/15 05:03:40;;;;;;;11.23;2.15;;;;;;;8.15;65.16;99836.22;5051534;28;20434;-76
2023/01/15 05:06:06;;;;;;;10.70;2.03;;;;;;;8.17;64.83;99828.47;5049706;28;20021;-76
2023/01/15 05:08:32;;;;;;;8.40;1.75;;;;;;;8.17;64.87;99824.88;5040624;28;20043;-76
2023/01/15 05:11:05;;;;;;;10.13;1.75;;;;;;;8.14;65.07;99830.97;5040987;28;20044;-76
2023/01/15 05:13:32;;;;;;;10.65;1.85;;;;;;;8.13;65.18;99832.88;5037268;28;20045;-76
2023/01/15 05:16:16;;;;;;;13.30;2.38;;;;;;;8.14;65.52;99833.72;5045100;28;20045;-76
2023/01/15 05:18:42;;;;;;;12.93;2.40;;;;;;;8.11;65.26;99830.38;5049294;28;20037;-76
2023/01/15 05:21:21;;;;;;;10.50;1.95;;;;;;;8.10;65.17;99831.47;5050577;28;20055;-76
2023/01/15 05:23:48;;;;;;;9.27;2.03;;;;;;;8.11;65.14;99824.03;5051104;28;20025;-76
2023/01/15 05:26:13;;;;;;;9.40;1.83;;;;;;;8.08;65.01;99816.25;5051086;28;20029;-77
2023/01/15 05:28:39;;;;;;;9.45;2.00;;;;;;;8.08;64.95;99814.31;5047825;28;20032;-76
2023/01/15 05:31:07;;;;;;;9.38;2.38;;;;;;;8.08;64.53;99824.53;5046467;28;20400;-76
2023/01/15 05:33:32;;;;;;;8.07;2.13;;;;;;;8.08;64.45;99819.84;5050319;28;20032;-76
2023/01/15 05:36:06;;;;;;;11.23;2.25;;;;;;;8.09;64.58;99802.16;5050394;28;20029;-77
2023/01/15 05:38:32;;;;;;;11.65;2.08;;;;;;;8.10;63.92;99814.06;5049374;28;20098;-76
2023/01/15 05:40:57;;;;;;;11.00;2.55;;;;;;;8.09;64.00;99810.44;5049248;28;20555;-76
2023/01/15 05:43:23;;;;;;;11.60;2.30;;;;;;;8.09;64.14;99812.38;5050926;28;20028;-76
2023/01/15 05:45:48;;;;;;;7.18;1.80;;;;;;;8.14;64.47;99803.31;5050445;28;20067;-76
2023/01/15 05:48:13;;;;;;;9.50;2.30;;;;;;;8.12;64.80;99804.41;5044816;28;20033;-77
2023/01/15 05:50:39;;;;;;;10.65;2.90;;;;;;;8.15;64.87;99803.06;5044616;28;20029;-77
2023/01/15 05:53:05;;;;;;;11.43;2.40;;;;;;;8.14;64.25;99798.63;5050986;28;20102;-77
2023/01/15 05:55:31;;;;;;;12.40;2.08;;;;;;;8.13;65.22;99805.22;5050171;28;20118;-77
2023/01/15 05:57:57;;;;;;;11.77;2.60;;;;;;;8.08;64.81;99797.72;5049943;28;20057;-77
2023/01/15 06:00:23;;;;;;;11.75;2.33;;;;;;;8.07;65.72;99806.28;5033279;28;20073;-77
2023/01/15 06:02:49;;;;;;;9.02;2.10;;;;;;;8.04;64.97;99807.63;5048896;28;20033;-77
2023/01/15 06:05:18;;;;;;;10.55;2.28;;;;;;;8.04;66.02;99798.53;5045947;28;20136;-77
2023/01/15 06:07:48;;;;;;;10.57;2.50;;;;;;;8.04;65.77;99801.28;5050029;28;20033;-77
2023/01/15 06:10:15;;;;;;;10.65;2.40;;;;;;;8.06;66.29;99805.47;5048868;28;20566;-77
2023/01/15 06:12:41;;;;;;;13.55;2.20;;;;;;;8.08;66.38;99808.78;5049921;28;20037;-77
2023/01/15 06:15:06;;;;;;;13.48;2.42;;;;;;;8.10;66.05;99809.38;5048882;28;20488;-77
2023/01/15 06:17:32;;;;;;;11.15;2.28;;;;;;;8.10;66.05;99816.84;5049913;28;20044;-77
2023/01/15 06:20:06;;;;;;;10.57;2.78;;;;;;;8.10;66.16;99831.47;5044287;28;20025;-77
2023/01/15 06:22:32;;;;;;;9.65;2.20;;;;;;;8.09;66.17;99827.03;5031816;28;20121;-77
2023/01/15 06:24:57;;;;;;;13.68;2.00;;;;;;;8.09;66.23;99829.78;5029750;28;20168;-77
2023/01/15 06:27:22;;;;;;;12.98;2.40;;;;;;;8.09;66.66;99837.25;5050673;28;20027;-77
2023/01/15 06:29:47;;;;;;;10.77;2.83;;;;;;;8.09;66.26;99827.03;5050555;28;20029;-77
2023/01/15 06:32:13;;;;;;;9.57;2.47;;;;;;;8.06;66.26;99823.97;5048995;28;20476;-76
2023/01/15 06:34:40;;;;;;;10.55;2.20;;;;;;;8.05;66.16;99842.47;5050423;28;20033;-77
2023/01/15 06:37:05;;;;;;;9.52;1.75;;;;;;;8.02;65.89;99840.25;5047251;28;20451;-76
2023/01/15 06:39:31;;;;;;;9.02;2.53;;;;;;;8.03;65.35;99844.66;5049104;28;20033;-76
2023/01/15 06:47:23;;;;;;;9.90;2.22;;;;;;;7.96;64.85;99823.88;5055133;28;20099;-76
2023/01/15 06:49:57;;;;;;;10.32;2.10;;;;;;;7.95;64.65;99819.44;5054146;28;20427;-76
2023/01/15 06:52:24;;;;;;;10.68;2.42;;;;;;;7.91;65.15;99821.06;5055100;28;20035;-76
2023/01/15 06:54:50;;;;;;;10.40;2.20;;;;;;;7.89;64.23;99824.06;5052821;28;20358;-76
2023/01/15 06:57:17;;;;;;;12.55;2.58;;;;;;;7.85;64.30;99829.28;5053394;28;20043;-76
2023/01/15 06:59:43;;;;;;;10.68;2.13;;;;;;;7.82;64.62;99838.13;5054982;28;20029;-76
2023/01/15 07:02:10;;;;;;;10.70;2.53;;;;;;;7.85;65.38;99837.56;5048530;28;20026;-76
2023/01/15 07:04:35;;;;;;;9.77;2.25;;;;;;;7.88;64.56;99839.81;5047861;28;20029;-76
2023/01/15 07:07:00;;;;;;;7.82;1.90;;;;;;;7.85;65.00;99834.81;5037799;28;20026;-76
2023/01/15 07:09:26;;;;;;;10.18;2.25;;;;;;;7.84;65.12;99835.06;5035422;28;20428;-76
2023/01/15 07:11:51;;;;;;;5.88;1.90;;;;;;;7.85;64.94;99845.03;5039440;28;20367;-76
2023/01/15 07:14:22;;;;;;;7.47;1.80;;;;;;;7.77;64.56;99842.72;5053495;28;20022;-77
2023/01/15 07:16:48;;;;;;;10.38;2.13;;;;;;;7.76;64.28;99849.34;5053146;28;20024;-77
2023/01/15 07:19:20;;;;;;;11.23;2.17;;;;;;;7.77;65.31;99851.84;5052124;28;20029;-76
2023/01/15 07:21:46;;;;;;;8.98;1.95;;;;;;;7.78;64.92;99855.44;5050901;28;20037;-77
2023/01/15 07:24:14;;;;;;;10.23;1.65;;;;;;;7.80;64.69;99844.97;5053602;28;20052;-77
2023/01/15 07:26:40;;;;;;;9.43;1.77;;;;;;;7.79;65.02;99859.88;5053648;28;20036;-77
2023/01/15 07:29:05;;;;;;;10.38;2.20;;;;;;;7.78;64.42;99869.25;5049802;28;20094;-77
2023/01/15 07:31:31;;;;;;;8.13;1.90;;;;;;;7.79;64.70;99871.78;5048170;28;20041;-77
2023/01/15 07:33:56;;;;;;;9.82;2.17;;;;;;;7.80;64.61;99867.91;5051500;28;20032;-77
2023/01/15 07:36:22;;;;;;;7.25;1.88;;;;;;;7.72;63.65;99867.53;5052873;28;20044;-76
2023/01/15 07:38:47;;;;;;;8.43;2.40;;;;;;;7.73;63.38;99877.50;5054328;28;20032;-77
2023/01/15 07:52:09;;;;;;;9.23;2.03;;;;;;;7.76;63.31;99882.50;5053473;28;20503;-77
2023/01/15 07:54:34;;;;;;;7.43;1.85;;;;;;;7.65;63.71;99887.06;5053333;28;20120;-77
2023/01/15 07:57:00;;;;;;;7.10;1.83;;;;;;;7.64;64.07;99885.41;5049727;28;20059;-76
2023/01/15 07:59:25;;;;;;;5.82;1.90;;;;;;;7.66;63.80;99890.66;5033325;28;20030;-76
2023/01/15 08:01:53;;;;;;;9.23;1.95;;;;;;;7.66;63.93;99899.78;5041312;28;20037;-77
2023/01/15 08:04:18;;;;;;;10.77;1.60;;;;;;;7.65;63.63;99883.47;5041542;28;20114;-77
2023/01/15 08:06:44;;;;;;;7.32;2.08;;;;;;;7.62;63.16;99899.47;5049041;28;20346;-77
2023/01/15 08:09:11;;;;;;;6.28;1.90;;;;;;;7.61;63.83;99891.44;5048861;28;20040;-77
2023/01/15 08:17:05;;;;;;;6.45;2.17;;;;;;;7.59;62.62;99888.94;5042331;28;20068;-77
2023/01/15 08:19:31;;;;;;;6.28;2.20;;;;;;;7.56;62.04;99888.63;5049591;28;20104;-76
2023/01/15 08:21:57;;;;;;;8.73;2.05;;;;;;;7.57;62.99;99898.56;5050863;28;20059;-76
2023/01/15 08:24:23;;;;;;;7.13;2.03;;;;;;;7.53;63.31;99898.22;5048725;28;20036;-75
2023/01/15 08:26:48;;;;;;;7.15;1.85;;;;;;;7.52;63.23;99893.81;5052809;28;20045;-75
2023/01/15 08:29:13;;;;;;;6.75;2.08;;;;;;;7.45;62.70;99901.44;5051614;28;20396;-76
2023/01/15 08:31:40;;;;;;;7.15;1.98;;;;;;;7.45;62.85;99904.22;5034594;28;20091;-77
2023/01/15 08:34:06;;;;;;;7.57;2.05;;;;;;;7.50;63.28;99898.75;5041761;28;20499;-76
2023/01/15 08:36:31;;;;;;;8.10;1.90;;;;;;;7.52;63.09;99898.50;5051022;28;20021;-75
2023/01/15 08:38:56;;;;;;;8.68;2.13;;;;;;;7.49;62.64;99902.59;5051092;28;20460;-74
2023/01/15 08:41:22;;;;;;;11.07;1.98;;;;;;;7.54;63.28;99902.66;5050051;28;20542;-75
2023/01/15 08:43:47;;;;;;;6.22;1.58;;;;;;;7.54;62.61;99913.69;5050628;28;20024;-73
2023/01/15 08:46:12;;;;;;;9.77;2.00;;;;;;;7.50;62.95;99901.50;5051114;28;20071;-74
2023/01/15 08:48:38;;;;;;;8.02;1.88;;;;;;;7.43;62.53;99897.25;5048575;28;20064;-74
2023/01/15 08:51:05;;;;;;;6.82;1.55;;;;;;;7.44;63.53;99891.50;5039934;28;20068;-75
2023/01/15 08:53:30;;;;;;;8.30;2.03;;;;;;;7.43;62.63;99898.13;5051931;28;20039;-76
2023/01/15 08:55:55;;;;;;;6.65;1.80;;;;;;;7.48;63.44;99886.31;5052065;28;20025;-73
2023/01/15 08:58:27;;;;;;;7.82;1.75;;;;;;;7.50;63.55;99890.47;5049838;28;20028;-76
2023/01/15 09:00:52;;;;;;;6.05;1.67;;;;;;;7.46;63.13;99882.94;5051944;28;20037;-75
2023/01/15 09:03:18;;;;;;;6.28;1.63;;;;;;;7.50;63.01;99884.09;5052057;28;20033;-74
2023/01/15 09:05:43;;;;;;;8.57;1.55;;;;;;;7.51;63.46;99875.59;5049528;28;20115;-75
2023/01/15 09:08:08;;;;;;;9.13;1.95;;;;;;;7.55;63.45;99876.75;5036155;28;20037;-70
2023/01/15 09:10:34;;;;;;;7.60;1.70;;;;;;;7.58;63.63;99869.84;5049142;28;20029;-71
2023/01/15 09:13:00;;;;;;;10.63;2.00;;;;;;;7.55;63.14;99882.25;5050747;28;20036;-71
2023/01/15 09:15:31;;;;;;;8.35;2.03;;;;;;;7.50;63.47;99882.16;5047815;28;20604;-72
2023/01/15 09:17:56;;;;;;;13.55;2.20;;;;;;;7.53;63.01;99864.28;5049718;28;20057;-72
2023/01/15 09:20:22;;;;;;;9.13;2.08;;;;;;;7.60;63.66;99870.44;5044441;28;20079;-77
2023/01/15 09:22:47;;;;;;;9.02;1.73;;;;;;;7.62;63.51;99885.66;5047022;28;20029;-77
2023/01/15 09:25:15;;;;;;;9.88;2.42;;;;;;;7.61;63.71;99872.94;5041484;28;20030;-73
2023/01/15 09:27:41;;;;;;;9.70;2.00;;;;;;;7.63;63.64;99878.22;5049460;28;20036;-74
2023/01/15 09:30:09;;;;;;;13.13;2.40;;;;;;;7.64;63.78;99874.34;5045297;28;20021;-74
2023/01/15 09:32:34;;;;;;;7.82;2.55;;;;;;;7.65;63.74;99887.06;5035132;28;20033;-75
2023/01/15 09:35:06;;;;;;;5.22;1.95;;;;;;;7.72;64.24;99884.13;5046738;28;20468;-68
2023/01/15 09:37:31;;;;;;;9.55;1.95;;;;;;;7.73;63.27;99883.84;5050505;28;20399;-65
2023/01/15 09:39:56;;;;;;;9.52;2.20;;;;;;;7.76;63.52;99872.28;5042757;28;20021;-74
2023/01/15 09:42:47;;;;;;;10.02;2.03;;;;;;;7.85;63.99;99880.94;5042208;28;20649;-75
2023/01/15 09:45:27;;;;;;;5.82;1.80;;;;;;;7.80;64.01;99884.47;5049948;28;20384;-75
2023/01/15 09:48:30;;;;;;;9.20;2.47;;;;;;;7.84;64.09;99896.69;5049953;28;20017;-75
2023/01/15 09:51:10;;;;;;;8.07;2.00;;;;;;;7.86;63.56;99885.41;5050283;28;20441;-75
2023/01/15 09:53:45;;;;;;;9.25;1.92;;;;;;;7.78;62.85;99891.34;5050946;28;20035;-75
2023/01/15 09:56:22;;;;;;;8.52;2.00;;;;;;;7.85;62.93;99900.28;5048895;28;20028;-75
2023/01/15 09:58:49;;;;;;;11.70;2.15;;;;;;;7.98;63.19;99899.06;5048510;28;20100;-75
2023/01/15 10:01:27;;;;;;;10.10;2.13;;;;;;;8.06;62.79;99893.06;5048373;28;20425;-74
2023/01/15 10:04:03;;;;;;;8.75;2.22;;;;;;;8.08;61.88;99890.88;5050793;28;20050;-74
2023/01/15 10:06:44;;;;;;;9.95;1.95;;;;;;;8.16;62.83;99897.84;5050726;28;20546;-75
2023/01/15 10:09:30;;;;;;;10.43;2.05;;;;;;;8.26;62.55;99909.88;5048949;28;20033;-75
2023/01/15 10:15:00;;;;;;;6.22;1.80;;;;;;;8.48;60.77;99904.28;5048817;28;20126;-75
2023/01/15 10:17:46;;;;;;;9.85;2.33;;;;;;;8.44;61.74;99916.97;5047887;28;20033;-75
2023/01/15 10:20:16;;;;;;;6.90;2.15;;;;;;;8.33;60.40;99907.72;5048420;28;20037;-75
2023/01/15 10:22:41;;;;;;;12.07;2.00;;;;;;;8.36;60.81;99911.88;5049855;28;20480;-74
2023/01/15 10:25:16;;;;;;;8.00;1.88;;;;;;;8.45;60.46;99917.78;5053641;28;20072;-74
2023/01/15 10:27:45;;;;;;;12.95;2.58;;;;;;;8.40;60.69;99913.06;5053770;28;20024;-74
2023/01/15 10:30:11;;;;;;;10.90;2.10;;;;;;;8.46;61.49;99900.97;5046366;28;20033;-64
2023/01/15 10:32:46;;;;;;;7.57;1.90;;;;;;;8.49;60.90;99908.75;5045984;28;20017;-64
2023/01/15 10:35:18;;;;;;;6.88;1.85;;;;;;;8.45;61.15;99913.13;5046565;28;20049;-74
2023/01/15 10:37:53;;;;;;;6.83;1.60;;;;;;;8.48;61.00;99914.50;5052673;28;20044;-74
2023/01/15 10:40:34;;;;;;;8.43;1.63;;;;;;;8.58;61.67;99912.69;5050975;28;20116;-74
2023/01/15 10:43:23;;;;;;;8.15;1.80;;;;;;;8.67;61.28;99924.09;5052638;28;20048;-74
2023/01/15 10:45:58;;;;;;;13.20;2.22;;;;;;;8.72;60.34;99917.78;5053583;28;20033;-74
2023/01/15 10:48:38;;;;;;;9.25;2.90;;;;;;;8.78;61.19;99925.03;5053658;28;20137;-74
2023/01/15 10:51:14;;;;;;;8.55;2.20;;;;;;;8.81;60.41;99918.97;5051799;28;20484;-75
2023/01/15 10:53:45;;;;;;;9.77;2.25;;;;;;;8.87;60.11;99915.13;5052663;28;20040;-66
2023/01/15 10:56:48;;;;;;;6.57;1.77;;;;;;;8.83;60.42;99908.44;5051922;28;20021;-73
2023/01/15 10:59:23;;;;;;;9.02;1.65;;;;;;;8.93;60.32;99891.94;5050002;28;20072;-73
2023/01/15 11:01:52;;;;;;;6.75;1.67;;;;;;;8.86;59.69;99891.31;5053741;28;20025;-73
2023/01/15 11:04:18;;;;;;;9.63;2.38;;;;;;;8.80;59.09;99892.38;5052895;28;20476;-73
2023/01/15 11:06:44;;;;;;;11.63;2.00;;;;;;;8.84;60.07;99910.97;5052563;28;20029;-72
2023/01/15 11:09:40;;;;;;;4.78;1.50;;;;;;;8.94;60.38;99924.03;5052958;28;20033;-73
2023/01/15 11:20:33;;;;;;;5.80;2.03;;;;;;;8.72;59.32;99917.78;5046645;28;20088;-75
2023/01/15 11:23:13;;;;;;;5.50;1.60;;;;;;;8.73;60.14;99925.00;5047045;28;20033;-76
2023/01/15 11:25:48;;;;;;;7.35;1.77;;;;;;;8.79;60.67;99915.63;5045182;28;20029;-75
2023/01/15 11:28:14;;;;;;;3.97;1.48;;;;;;;8.81;60.71;99918.97;5050463;28;20078;-60
2023/01/15 11:30:40;;;;;;;6.10;1.55;;;;;;;8.81;59.87;99908.72;5050362;28;20048;-65
2023/01/15 11:33:21;;;;;;;5.07;1.55;;;;;;;8.97;61.58;99919.91;5039555;28;20033;-76
2023/01/15 11:35:51;;;;;;;5.38;1.42;;;;;;;8.95;60.14;99939.53;5049141;28;20086;-73
2023/01/15 11:38:21;;;;;;;5.50;1.50;;;;;;;8.88;59.35;99913.19;5051452;28;20048;-75
2023/01/15 11:40:58;;;;;;;3.85;1.33;;;;;;;8.75;60.10;99928.31;5050422;28;20033;-73
2023/01/15 11:52:16;;;;;;;4.53;1.45;;;;;;;8.66;60.96;99913.31;5048064;28;20063;-76
2023/01/15 11:54:47;;;;;;;5.47;1.90;;;;;;;8.66;61.36;99922.44;5046064;28;20032;-75
2023/01/15 11:57:30;;;;;;;7.20;1.88;;;;;;;8.63;60.77;99922.94;5049991;28;20175;-74
2023/01/15 11:59:56;;;;;;;4.72;1.40;;;;;;;8.65;61.69;99914.41;5047743;28;20507;-73
2023/01/15 12:05:24;;;;;;;5.35;1.52;;;;;;;8.50;61.03;99912.34;5045839;28;20029;-71
2023/01/15 12:07:53;;;;;;;5.47;1.80;;;;;;;8.47;60.55;99924.75;5030275;28;20067;-70
2023/01/15 12:11:02;;;;;;;4.55;1.45;;;;;;;8.35;60.08;99912.97;5052066;28;20112;-71
2023/01/15 12:13:19;;;;;;;4.55;1.40;;;;;;;8.32;60.27;99914.31;5048949;28;20076;-69
2023/01/15 12:16:06;;;;;;;4.63;1.40;;;;;;;8.33;61.53;99913.25;5048465;28;20062;-70
2023/01/15 12:18:53;;;;;;;5.57;1.60;;;;;;;8.40;61.57;99909.47;5049607;28;20083;-70
2023/01/15 12:21:41;;;;;;;8.05;2.17;;;;;;;8.39;61.64;99911.41;5049467;28;20037;-71
2023/01/15 12:24:44;;;;;;;6.45;1.60;;;;;;;8.40;61.50;99913.06;5050826;28;20554;-70
2023/01/15 12:27:18;;;;;;;7.28;2.55;;;;;;;8.32;61.88;99894.16;5048223;28;20034;-70
2023/01/15 12:30:01;;;;;;;4.05;2.00;;;;;;;8.33;62.03;99899.44;5049879;28;20040;-69
2023/01/15 12:32:32;;;;;;;;;;;;;;;8.44;62.46;99905.91;5037995;28;20040;-70
2023/01/15 12:35:28;;;;;;;7.30;1.50;;;;;;;8.35;61.59;99891.69;5048718;28;19916;-72
2023/01/15 12:38:00;;;;;;;4.45;1.40;;;;;;;8.29;61.75;99897.44;5045122;28;20396;-70
2023/01/15 12:40:39;;;;;;;8.98;1.80;;;;;;;8.31;61.69;99901.59;5042251;28;20032;-73
2023/01/15 12:46:06;;;;;;;12.27;1.63;;;;;;;8.46;62.33;99914.78;5045956;28;20553;-62